Time;durP1;ratioP1;P1;durP2;ratioP2;P2;SDS_P1;SDS_P2;PMS_P1;PMS_P2;Temp;Humidity;BMP_temperature;BMP_pressure;BME280_temperature;BME280_humidity;BME280_pressure;Samples;Min_cycle;Max_cycle;Signal;HPM_P1;HPM_P2
2022/07/13 00:01:28;;;;;;;8.27;5.78;;;;;;;21.96;63.81;102030.44;5008853;28;20026;-76
2022/07/13 00:03:53;;;;;;;8.13;6.20;;;;;;;21.94;63.67;102033.28;5009931;28;20040;-78
2022/07/13 00:06:18;;;;;;;10.48;5.93;;;;;;;21.98;63.55;102039.16;5008551;28;20030;-78
2022/07/13 00:08:46;;;;;;;8.13;6.03;;;;;;;21.96;63.40;102025.06;5008380;28;20035;-76
2022/07/13 00:11:11;;;;;;;8.23;5.72;;;;;;;21.93;63.40;102009.31;5008398;28;20508;-76
2022/07/13 00:13:37;;;;;;;7.82;6.13;;;;;;;21.92;63.05;102007.63;5008391;28;20037;-78
2022/07/13 00:16:02;;;;;;;8.30;5.50;;;;;;;21.89;62.83;101998.91;5009283;28;20378;-78
2022/07/13 00:18:27;;;;;;;12.60;5.38;;;;;;;21.89;61.69;102004.25;5016567;28;20032;-77
2022/07/13 00:20:53;;;;;;;6.95;5.10;;;;;;;21.91;61.25;101996.06;5010035;28;20528;-78
2022/07/13 00:23:19;;;;;;;7.00;5.28;;;;;;;21.94;60.97;101994.91;5016708;28;20076;-76
2022/07/13 00:25:47;;;;;;;6.95;5.47;;;;;;;21.92;61.06;101987.03;5014008;28;20036;-78
2022/07/13 00:28:13;;;;;;;7.38;5.00;;;;;;;21.92;60.89;101992.38;5018727;28;20021;-76
2022/07/13 00:30:39;;;;;;;8.10;4.97;;;;;;;21.92;60.85;101991.53;5012123;28;20025;-77
2022/07/13 00:33:06;;;;;;;8.50;5.53;;;;;;;21.90;60.58;101987.19;5013753;28;20018;-75
2022/07/13 00:35:33;;;;;;;6.28;4.75;;;;;;;21.90;60.90;101989.88;5012872;28;20036;-74
2022/07/13 00:37:58;;;;;;;6.60;4.75;;;;;;;21.88;60.47;101978.47;5027964;28;20038;-76
2022/07/13 00:40:24;;;;;;;7.90;5.28;;;;;;;21.87;60.60;101974.09;5016297;28;20451;-77
2022/07/13 00:42:50;;;;;;;7.47;4.60;;;;;;;21.85;60.56;101964.56;5023087;28;20018;-74
2022/07/13 00:45:18;;;;;;;7.40;5.10;;;;;;;21.83;60.69;101945.97;5012403;28;20080;-77
2022/07/13 00:47:49;;;;;;;8.73;4.90;;;;;;;21.84;60.48;101952.16;5018916;28;20057;-76
2022/07/13 00:50:15;;;;;;;6.55;4.95;;;;;;;21.82;59.83;101954.16;5012340;28;20074;-74
2022/07/13 00:52:41;;;;;;;5.88;4.60;;;;;;;21.86;59.36;101953.66;5011904;28;20117;-76
2022/07/13 00:55:08;;;;;;;11.73;4.90;;;;;;;21.85;59.13;101951.16;5012953;28;20117;-74
2022/07/13 00:57:35;;;;;;;10.23;5.10;;;;;;;21.89;58.68;101950.66;5018102;28;20041;-78
2022/07/13 01:00:04;;;;;;;8.43;4.75;;;;;;;21.85;59.01;101945.78;5012274;28;20052;-76
2022/07/13 01:02:30;;;;;;;9.45;4.70;;;;;;;21.83;59.19;101945.97;5018722;28;20018;-74
2022/07/13 01:04:55;;;;;;;6.43;4.75;;;;;;;21.82;58.87;101949.63;5012033;28;20033;-74
2022/07/13 01:07:21;;;;;;;5.40;4.00;;;;;;;21.84;58.59;101938.75;5011325;28;20026;-76
2022/07/13 01:09:51;;;;;;;9.27;4.28;;;;;;;21.82;58.39;101938.91;5012882;28;20401;-77
2022/07/13 01:12:19;;;;;;;6.95;4.15;;;;;;;21.81;58.88;101950.63;5019234;28;20026;-75
2022/07/13 01:14:44;;;;;;;7.85;4.40;;;;;;;21.85;58.71;101943.94;5013330;28;20435;-75
2022/07/13 01:17:12;;;;;;;7.93;4.40;;;;;;;21.88;58.13;101943.63;5013283;28;20056;-75
2022/07/13 01:19:38;;;;;;;6.47;4.20;;;;;;;21.86;58.23;101942.13;5010442;28;20509;-76
2022/07/13 01:22:05;;;;;;;6.10;3.88;;;;;;;21.83;58.31;101931.72;5012798;28;20022;-77
2022/07/13 01:24:32;;;;;;;5.65;4.10;;;;;;;21.83;58.47;101934.41;5012443;28;20032;-77
2022/07/13 01:26:59;;;;;;;7.30;4.20;;;;;;;21.84;57.85;101941.44;5021159;28;20029;-75
2022/07/13 01:29:26;;;;;;;5.97;4.15;;;;;;;21.84;57.63;101931.56;5012494;28;20544;-76
2022/07/13 01:31:58;;;;;;;5.20;3.80;;;;;;;21.87;56.87;101930.41;5013959;28;20033;-74
2022/07/13 01:34:24;;;;;;;4.75;4.22;;;;;;;21.85;57.30;101927.88;5011694;28;20504;-75
2022/07/13 01:36:49;;;;;;;4.72;3.70;;;;;;;21.80;57.43;101932.88;5018555;28;20049;-77
2022/07/13 01:39:14;;;;;;;5.43;3.67;;;;;;;21.82;57.41;101933.56;5019608;28;20024;-77
2022/07/13 01:41:40;;;;;;;5.32;3.78;;;;;;;21.82;56.80;101928.19;5013717;28;20434;-75
2022/07/13 01:44:05;;;;;;;5.07;3.70;;;;;;;21.79;57.32;101933.88;5014637;28;20030;-74
2022/07/13 01:46:30;;;;;;;7.32;4.00;;;;;;;21.81;57.10;101925.69;5011051;28;20026;-74
2022/07/13 01:48:56;;;;;;;6.93;3.92;;;;;;;21.81;56.67;101931.88;5011636;28;20037;-76
2022/07/13 01:51:21;;;;;;;6.80;3.42;;;;;;;21.75;57.02;101929.00;5012794;28;20557;-74
2022/07/13 01:53:47;;;;;;;7.00;3.70;;;;;;;21.73;57.43;101931.84;5011200;28;20042;-76
2022/07/13 01:56:12;;;;;;;6.65;3.70;;;;;;;21.70;57.53;101931.31;5016128;28;20101;-74
2022/07/13 01:58:38;;;;;;;6.72;3.60;;;;;;;21.68;57.42;101931.50;5010117;28;20038;-76
2022/07/13 02:01:04;;;;;;;7.45;3.75;;;;;;;21.69;57.19;101921.63;5010523;28;20049;-74
2022/07/13 02:03:31;;;;;;;8.05;3.83;;;;;;;21.66;56.93;101922.78;5019201;28;20132;-77
2022/07/13 02:05:57;;;;;;;4.88;3.50;;;;;;;21.66;57.36;101924.63;5011333;28;20060;-75
2022/07/13 02:08:23;;;;;;;6.22;3.53;;;;;;;21.64;57.60;101916.75;5010811;28;20065;-77
2022/07/13 02:10:48;;;;;;;7.22;3.78;;;;;;;21.61;57.28;101914.34;5011542;28;20026;-75
2022/07/13 02:13:14;;;;;;;6.90;3.45;;;;;;;21.60;57.29;101907.31;5010248;28;20036;-77
2022/07/13 02:15:40;;;;;;;7.00;3.63;;;;;;;21.57;57.91;101903.13;5011293;28;20026;-76
2022/07/13 02:18:06;;;;;;;6.30;3.47;;;;;;;21.59;57.53;101905.63;5010527;28;20037;-77
2022/07/13 02:20:31;;;;;;;6.45;3.60;;;;;;;21.57;58.02;101892.41;5013427;28;20009;-76
2022/07/13 02:22:57;;;;;;;7.95;3.72;;;;;;;21.54;58.12;101889.22;5011822;28;20049;-76
2022/07/13 02:25:22;;;;;;;8.48;3.70;;;;;;;21.55;57.41;101899.75;5018203;28;20033;-74
2022/07/13 02:27:48;;;;;;;4.80;3.58;;;;;;;21.53;58.10;101901.75;5021421;28;20030;-75
2022/07/13 02:30:18;;;;;;;7.68;3.38;;;;;;;21.50;58.39;101891.38;5012572;28;20061;-74
2022/07/13 02:32:45;;;;;;;9.25;3.70;;;;;;;21.53;57.82;101892.88;5011689;28;20033;-75
2022/07/13 02:35:13;;;;;;;6.82;3.75;;;;;;;21.50;57.89;101888.69;5012767;28;20446;-76
2022/07/13 02:37:40;;;;;;;6.03;3.85;;;;;;;21.51;57.55;101871.63;5022685;28;20022;-77
2022/07/13 02:40:09;;;;;;;5.68;4.00;;;;;;;21.50;57.56;101891.38;5012148;28;20057;-75
2022/07/13 02:42:34;;;;;;;7.72;3.88;;;;;;;21.52;57.80;101888.53;5024368;28;20021;-77
2022/07/13 02:45:00;;;;;;;5.28;3.40;;;;;;;21.53;58.10;101879.50;5026986;28;20050;-77
2022/07/13 02:47:25;;;;;;;7.20;3.92;;;;;;;21.52;57.92;101864.41;5026051;28;20033;-77
2022/07/13 02:49:50;;;;;;;5.47;3.67;;;;;;;21.53;57.95;101850.03;5021532;28;20037;-76
2022/07/13 02:52:17;;;;;;;6.57;3.90;;;;;;;21.53;57.87;101855.38;5025648;28;20049;-77
2022/07/13 02:54:42;;;;;;;5.63;3.70;;;;;;;21.52;58.59;101875.13;5025781;28;20028;-74
2022/07/13 02:57:08;;;;;;;5.50;4.15;;;;;;;21.53;58.04;101871.47;5018103;28;20018;-75
2022/07/13 02:59:38;;;;;;;6.35;4.07;;;;;;;21.53;58.26;101871.47;5025043;28;20397;-77
2022/07/13 03:02:05;;;;;;;5.78;3.80;;;;;;;21.51;58.50;101870.78;5021678;28;20014;-76
2022/07/13 03:04:31;;;;;;;8.82;3.80;;;;;;;21.49;58.91;101868.25;5023770;28;20626;-76
2022/07/13 03:06:56;;;;;;;6.07;3.90;;;;;;;21.47;59.27;101878.28;5008525;28;20104;-76
2022/07/13 03:09:21;;;;;;;6.65;4.07;;;;;;;21.46;58.98;101883.81;5014203;28;20030;-74
2022/07/13 03:11:47;;;;;;;8.00;4.05;;;;;;;21.45;59.19;101880.28;5009561;28;20184;-75
2022/07/13 03:14:12;;;;;;;7.00;3.83;;;;;;;21.45;59.06;101876.78;5018464;28;20073;-76
2022/07/13 03:16:37;;;;;;;5.18;4.10;;;;;;;21.46;59.28;101881.13;5009369;28;20429;-75
2022/07/13 03:19:03;;;;;;;6.05;3.67;;;;;;;21.43;59.12;101879.63;5008778;28;20021;-77
2022/07/13 03:21:29;;;;;;;5.22;3.80;;;;;;;21.41;59.39;101875.41;5009668;28;20022;-77
2022/07/13 03:23:54;;;;;;;5.80;3.60;;;;;;;21.40;59.25;101873.75;5009843;28;20494;-77
2022/07/13 03:26:20;;;;;;;6.53;3.60;;;;;;;21.39;59.61;101862.19;5018266;28;20108;-75
2022/07/13 03:28:45;;;;;;;8.88;4.18;;;;;;;21.39;59.70;101869.38;5025141;28;20512;-75
2022/07/13 03:31:13;;;;;;;9.93;4.43;;;;;;;21.39;59.84;101872.06;5011570;28;20034;-77
2022/07/13 03:33:39;;;;;;;9.80;4.20;;;;;;;21.35;60.40;101866.19;5017668;28;20038;-77
2022/07/13 03:36:04;;;;;;;10.65;4.28;;;;;;;21.38;60.12;101863.19;5010435;28;20095;-77
2022/07/13 03:38:31;;;;;;;12.90;5.07;;;;;;;21.36;59.64;101867.88;5013824;28;20033;-75
2022/07/13 03:40:56;;;;;;;14.80;5.28;;;;;;;21.36;60.27;101864.34;5010423;28;20026;-77
2022/07/13 03:43:22;;;;;;;28.35;5.60;;;;;;;21.32;60.00;101869.19;5011492;28;20398;-77
2022/07/13 03:45:47;;;;;;;15.73;5.22;;;;;;;21.34;60.41;101863.66;5009675;28;20401;-77
2022/07/13 03:48:13;;;;;;;19.98;5.18;;;;;;;21.34;59.98;101861.84;5011148;28;20044;-74
2022/07/13 03:50:39;;;;;;;19.08;4.82;;;;;;;21.34;60.06;101859.16;5010357;28;20049;-76
2022/07/13 03:53:04;;;;;;;15.02;4.68;;;;;;;21.35;59.44;101860.84;5025120;28;20052;-75
2022/07/13 03:55:30;;;;;;;6.72;4.38;;;;;;;21.35;59.67;101862.66;5023440;28;20059;-75
2022/07/13 03:57:56;;;;;;;9.00;4.00;;;;;;;21.37;59.66;101858.84;5025119;28;20025;-77
2022/07/13 04:00:21;;;;;;;8.90;4.20;;;;;;;21.34;59.58;101861.00;5023511;28;20119;-74
2022/07/13 04:02:47;;;;;;;6.50;4.25;;;;;;;21.33;59.76;101856.63;5023200;28;20485;-77
2022/07/13 04:05:12;;;;;;;4.90;3.90;;;;;;;21.35;59.75;101860.84;5016847;28;20489;-77
2022/07/13 04:07:37;;;;;;;7.88;4.45;;;;;;;21.35;59.79;101865.34;5006260;28;20036;-76
2022/07/13 04:10:03;;;;;;;6.55;4.40;;;;;;;21.33;60.32;101859.31;5007538;28;20017;-77
2022/07/13 04:12:28;;;;;;;8.65;4.38;;;;;;;21.31;59.87;101861.31;5007887;28;20058;-74
2022/07/13 04:14:53;;;;;;;5.80;3.97;;;;;;;21.32;59.95;101860.31;5008394;28;20014;-74
2022/07/13 04:17:19;;;;;;;8.98;4.50;;;;;;;21.34;59.95;101852.97;5008972;28;20084;-76
2022/07/13 04:19:44;;;;;;;7.40;4.20;;;;;;;21.33;59.69;101851.28;5008846;28;20079;-75
2022/07/13 04:22:09;;;;;;;4.60;3.47;;;;;;;21.35;59.86;101843.94;5008515;28;20022;-76
2022/07/13 04:24:35;;;;;;;9.38;3.85;;;;;;;21.38;59.46;101848.97;5011132;28;20312;-76
2022/07/13 04:27:00;;;;;;;6.68;4.00;;;;;;;21.38;58.88;101846.28;5018238;28;20432;-74
2022/07/13 04:29:25;;;;;;;4.95;3.60;;;;;;;21.35;59.44;101841.25;5010342;28;20477;-77
2022/07/13 04:31:50;;;;;;;5.63;3.65;;;;;;;21.39;59.20;101837.25;5007881;28;20533;-77
2022/07/13 04:34:19;;;;;;;6.90;3.78;;;;;;;21.41;59.12;101836.09;5009211;28;20108;-77
2022/07/13 04:36:44;;;;;;;7.35;3.60;;;;;;;21.43;59.12;101834.09;5013156;28;20022;-77
2022/07/13 04:39:10;;;;;;;10.75;4.20;;;;;;;21.47;58.81;101831.94;5016413;28;20028;-74
2022/07/13 04:41:37;;;;;;;7.70;3.80;;;;;;;21.49;59.13;101830.78;5009625;28;20026;-77
2022/07/13 04:44:03;;;;;;;5.68;3.67;;;;;;;21.53;58.68;101833.97;5014166;28;20028;-75
2022/07/13 04:46:28;;;;;;;6.65;3.60;;;;;;;21.57;58.25;101832.63;5018022;28;20117;-74
2022/07/13 04:48:53;;;;;;;7.95;3.45;;;;;;;21.58;58.68;101834.31;5010024;28;20101;-75
2022/07/13 04:51:19;;;;;;;7.28;3.92;;;;;;;21.62;58.84;101830.34;5007503;28;20049;-75
2022/07/13 04:53:45;;;;;;;5.05;3.78;;;;;;;21.62;58.39;101834.88;5011060;28;20414;-77
2022/07/13 04:56:10;;;;;;;8.15;3.70;;;;;;;21.61;58.10;101839.34;5009276;28;20088;-75
2022/07/13 04:58:36;;;;;;;5.03;3.50;;;;;;;21.63;58.70;101834.69;5008693;28;20021;-74
2022/07/13 05:01:01;;;;;;;7.93;3.60;;;;;;;21.67;58.70;101830.69;5009912;28;20482;-75
2022/07/13 05:03:27;;;;;;;5.32;3.35;;;;;;;21.70;58.28;101825.00;5008197;28;20105;-76
2022/07/13 05:05:52;;;;;;;5.40;3.03;;;;;;;21.68;59.75;101823.50;5007501;28;20088;-75
2022/07/13 05:08:18;;;;;;;7.65;3.50;;;;;;;21.74;57.72;101829.03;5008099;28;20057;-76
2022/07/13 05:10:43;;;;;;;5.78;3.63;;;;;;;21.77;58.51;101827.88;5008068;28;20026;-74
2022/07/13 05:13:08;;;;;;;7.72;3.60;;;;;;;21.80;57.78;101831.06;5012413;28;20072;-74
2022/07/13 05:15:34;;;;;;;6.78;3.25;;;;;;;21.86;57.77;101835.75;5011542;28;20032;-74
2022/07/13 05:17:59;;;;;;;7.00;3.50;;;;;;;21.92;57.77;101830.75;5011409;28;20022;-74
2022/07/13 05:20:24;;;;;;;7.15;3.35;;;;;;;21.98;57.13;101827.41;5011424;28;20113;-74
2022/07/13 05:22:50;;;;;;;6.35;3.20;;;;;;;22.02;57.05;101831.47;5018824;28;20022;-74
2022/07/13 05:25:20;;;;;;;5.97;3.30;;;;;;;22.04;57.12;101824.13;5011377;28;20088;-74
2022/07/13 05:27:46;;;;;;;3.95;3.10;;;;;;;22.06;57.30;101827.50;5021501;28;20525;-74
2022/07/13 05:30:11;;;;;;;5.80;3.38;;;;;;;22.09;56.90;101830.69;5012125;28;20032;-74
2022/07/13 05:32:36;;;;;;;5.22;3.50;;;;;;;22.09;56.64;101817.28;5010616;28;20044;-74
2022/07/13 05:35:02;;;;;;;6.28;3.42;;;;;;;22.11;56.75;101830.50;5011843;28;20022;-77
2022/07/13 05:37:28;;;;;;;5.07;3.22;;;;;;;22.09;56.46;101838.72;5010659;28;20057;-76
2022/07/13 05:39:54;;;;;;;8.05;3.35;;;;;;;22.10;56.62;101839.56;5011014;28;20072;-79
2022/07/13 05:42:20;;;;;;;4.78;3.50;;;;;;;22.11;56.74;101838.56;5019307;28;20416;-78
2022/07/13 05:44:45;;;;;;;7.53;3.67;;;;;;;22.13;56.18;101836.53;5012107;28;20030;-76
2022/07/13 05:47:11;;;;;;;7.45;3.40;;;;;;;22.17;56.37;101840.56;5011746;28;20034;-76
2022/07/13 05:49:37;;;;;;;7.30;3.42;;;;;;;22.15;56.04;101842.56;5012265;28;20481;-76
2022/07/13 05:52:02;;;;;;;4.28;3.33;;;;;;;22.13;56.15;101845.44;5012958;28;20033;-77
2022/07/13 05:54:27;;;;;;;5.43;3.10;;;;;;;22.22;56.22;101851.63;5012513;28;20016;-77
2022/07/13 05:56:53;;;;;;;6.50;3.20;;;;;;;22.27;56.78;101851.97;5023434;28;20037;-76
2022/07/13 05:59:18;;;;;;;7.07;3.20;;;;;;;22.27;56.98;101846.59;5012835;28;20064;-75
2022/07/13 06:01:43;;;;;;;12.77;3.67;;;;;;;22.40;56.83;101849.63;5018624;28;20021;-75
2022/07/13 06:04:09;;;;;;;4.78;3.10;;;;;;;22.42;56.24;101855.69;5011419;28;20061;-77
2022/07/13 06:06:34;;;;;;;6.15;3.22;;;;;;;22.42;57.00;101858.38;5017164;28;20641;-74
2022/07/13 06:08:59;;;;;;;5.78;3.22;;;;;;;22.47;56.20;101844.47;5013246;28;20032;-77
2022/07/13 06:11:25;;;;;;;5.68;3.00;;;;;;;22.47;56.38;101845.31;5011995;28;20025;-76
2022/07/13 06:13:50;;;;;;;8.80;3.17;;;;;;;22.56;56.88;101846.16;5012099;28;20532;-75
2022/07/13 06:16:18;;;;;;;8.32;3.35;;;;;;;22.55;56.80;101854.34;5014349;28;20041;-75
2022/07/13 06:18:43;;;;;;;4.60;2.95;;;;;;;22.66;56.74;101854.00;5014793;28;20030;-75
2022/07/13 06:21:09;;;;;;;7.43;3.30;;;;;;;22.65;55.85;101855.03;5010309;28;20032;-76
2022/07/13 06:23:34;;;;;;;3.13;2.65;;;;;;;22.72;56.11;101858.72;5010871;28;20330;-77
2022/07/13 06:26:00;;;;;;;9.27;3.25;;;;;;;22.78;56.38;101848.13;5014119;28;20034;-77
2022/07/13 06:28:25;;;;;;;7.13;3.08;;;;;;;22.87;56.21;101854.38;5020259;28;20321;-75
2022/07/13 06:30:50;;;;;;;11.80;3.40;;;;;;;22.91;55.83;101849.50;5011338;28;20036;-77
2022/07/13 06:33:16;;;;;;;6.05;3.10;;;;;;;23.03;56.24;101848.97;5011544;28;20034;-75
2022/07/13 06:35:42;;;;;;;4.45;3.42;;;;;;;23.07;56.41;101852.16;5009369;28;20294;-77
2022/07/13 06:38:08;;;;;;;7.78;3.03;;;;;;;23.14;55.39;101851.31;5015662;28;20383;-77
2022/07/13 06:40:33;;;;;;;6.18;3.25;;;;;;;23.18;55.72;101841.06;5011703;28;20079;-75
2022/07/13 06:42:59;;;;;;;5.00;3.25;;;;;;;23.14;55.89;101847.78;5008721;28;20022;-74
2022/07/13 06:45:25;;;;;;;4.75;3.17;;;;;;;23.17;55.88;101839.38;5010973;28;20044;-77
2022/07/13 06:47:51;;;;;;;5.13;3.05;;;;;;;23.21;55.99;101845.25;5015240;28;20045;-75
2022/07/13 06:50:17;;;;;;;7.18;3.00;;;;;;;23.24;56.17;101845.78;5009116;28;20029;-78
2022/07/13 06:52:44;;;;;;;8.48;3.45;;;;;;;23.31;55.45;101840.53;5010283;28;20402;-75
2022/07/13 06:55:10;;;;;;;5.10;3.17;;;;;;;23.56;55.75;101839.44;5021242;28;20029;-77
2022/07/13 06:57:35;;;;;;;8.65;3.45;;;;;;;23.71;55.78;101832.34;5015592;28;20365;-75
2022/07/13 07:00:05;;;;;;;6.78;3.60;;;;;;;23.83;55.57;101831.94;5012181;28;20025;-75
2022/07/13 07:02:31;;;;;;;6.43;3.47;;;;;;;23.87;55.50;101833.28;5029501;28;20481;-76
2022/07/13 07:04:56;;;;;;;9.45;3.90;;;;;;;23.84;55.18;101839.84;5012961;28;20041;-75
2022/07/13 07:07:22;;;;;;;7.60;3.92;;;;;;;23.82;55.70;101854.47;5017052;28;20158;-77
2022/07/13 07:09:47;;;;;;;8.35;3.65;;;;;;;23.81;56.09;101847.41;5012427;28;20025;-76
2022/07/13 07:12:13;;;;;;;9.07;4.03;;;;;;;23.75;55.39;101855.19;5014718;28;20428;-77
2022/07/13 07:14:38;;;;;;;8.68;4.25;;;;;;;23.78;56.31;101853.16;5018950;28;20481;-75
2022/07/13 07:17:04;;;;;;;13.40;4.63;;;;;;;23.71;56.50;101847.66;5018186;28;20111;-75
2022/07/13 07:19:29;;;;;;;11.13;4.25;;;;;;;23.82;56.36;101859.84;5017529;28;20068;-75
2022/07/13 07:21:55;;;;;;;14.10;4.38;;;;;;;24.03;56.18;101839.41;5016769;28;20049;-75
2022/07/13 07:24:23;;;;;;;8.75;4.65;;;;;;;24.62;55.70;101852.28;5016638;28;21529;-75
2022/07/13 07:26:48;;;;;;;10.32;5.18;;;;;;;24.78;53.80;101851.31;5015048;28;20066;-77
2022/07/13 07:29:14;;;;;;;7.38;4.60;;;;;;;24.83;54.36;101847.06;5015595;28;20549;-77
2022/07/13 07:31:40;;;;;;;9.70;4.85;;;;;;;24.77;53.64;101850.47;5017124;28;20030;-77
2022/07/13 07:34:06;;;;;;;10.05;5.45;;;;;;;24.79;54.30;101840.34;5016000;28;20501;-77
2022/07/13 07:36:31;;;;;;;7.97;5.05;;;;;;;24.92;54.74;101837.88;5015220;28;20076;-77
2022/07/13 07:38:57;;;;;;;10.48;5.38;;;;;;;24.95;53.41;101840.22;5019757;28;20026;-77
2022/07/13 07:41:22;;;;;;;8.13;4.72;;;;;;;25.05;55.36;101836.44;5015979;28;20033;-75
2022/07/13 07:43:48;;;;;;;9.32;5.50;;;;;;;24.97;53.84;101834.63;5018112;28;20501;-78
2022/07/13 07:46:14;;;;;;;8.23;5.05;;;;;;;24.94;55.51;101838.53;5014372;28;20022;-76
2022/07/13 07:48:39;;;;;;;8.00;5.07;;;;;;;25.00;55.22;101839.69;5010433;28;20064;-78
2022/07/13 07:51:05;;;;;;;9.55;5.07;;;;;;;24.91;56.16;101835.38;5011785;28;20510;-76
2022/07/13 07:53:32;;;;;;;10.73;5.00;;;;;;;25.07;55.23;101835.22;5007558;28;20133;-79
2022/07/13 07:55:57;;;;;;;13.57;5.68;;;;;;;25.22;53.75;101838.78;5009391;28;20121;-76
2022/07/13 07:58:23;;;;;;;12.32;5.75;;;;;;;25.22;54.41;101833.41;5009531;28;20064;-78
2022/07/13 08:00:48;;;;;;;10.90;5.60;;;;;;;25.28;54.62;101832.66;5010166;28;20026;-78
2022/07/13 08:03:14;;;;;;;8.18;5.07;;;;;;;25.39;54.85;101830.50;5015410;28;20021;-76
2022/07/13 08:05:41;;;;;;;9.00;5.38;;;;;;;25.37;55.69;101825.31;5015271;28;20030;-76
2022/07/13 08:08:06;;;;;;;11.93;5.68;;;;;;;25.78;54.34;101830.22;5012681;28;20053;-77
2022/07/13 08:10:31;;;;;;;12.40;5.90;;;;;;;25.82;54.34;101835.03;5008762;28;20064;-75
2022/07/13 08:12:59;;;;;;;9.95;5.68;;;;;;;26.00;54.39;101836.47;5009746;28;20026;-75
2022/07/13 08:15:25;;;;;;;11.90;5.70;;;;;;;25.99;54.27;101838.31;5015672;28;20025;-75
2022/07/13 08:17:50;;;;;;;8.70;5.90;;;;;;;25.92;53.56;101834.72;5010746;28;20033;-75
2022/07/13 08:20:19;;;;;;;7.85;5.75;;;;;;;25.90;54.56;101832.22;5009000;28;20105;-75
2022/07/13 08:22:44;;;;;;;9.43;5.50;;;;;;;26.20;53.63;101829.44;5017790;28;20063;-75
2022/07/13 08:25:09;;;;;;;12.65;5.90;;;;;;;26.21;53.07;101833.78;5017092;28;20022;-76
2022/07/13 08:27:35;;;;;;;10.15;5.60;;;;;;;26.26;53.47;101847.53;5020566;28;20478;-77
2022/07/13 08:30:00;;;;;;;7.45;5.35;;;;;;;26.24;53.91;101842.34;5014247;28;20101;-78
2022/07/13 08:32:26;;;;;;;8.00;5.25;;;;;;;26.27;53.61;101842.97;5014860;28;20057;-75
2022/07/13 08:40:20;;;;;;;8.07;4.43;;;;;;;26.60;54.35;101844.16;5015388;28;20120;-75
2022/07/13 08:42:47;;;;;;;8.98;4.78;;;;;;;26.83;53.55;101839.38;5017471;28;20052;-75
2022/07/13 08:45:13;;;;;;;10.35;4.70;;;;;;;26.93;53.13;101844.44;5015317;28;20029;-74
2022/07/13 08:47:40;;;;;;;8.95;4.70;;;;;;;27.16;51.99;101846.88;5016211;28;20033;-76
2022/07/13 08:50:08;;;;;;;8.93;4.60;;;;;;;27.29;51.50;101848.84;5016523;28;20042;-77
2022/07/13 08:52:39;;;;;;;10.25;4.50;;;;;;;27.18;51.91;101847.53;5017363;28;20060;-74
2022/07/13 08:55:06;;;;;;;5.32;4.40;;;;;;;27.27;50.85;101843.66;5019037;28;20030;-75
2022/07/13 08:57:37;;;;;;;10.07;4.70;;;;;;;27.08;50.83;101849.75;5011775;28;20034;-75
2022/07/13 09:00:07;;;;;;;9.25;4.43;;;;;;;27.17;51.27;101846.69;5012600;28;20026;-76
2022/07/13 09:02:33;;;;;;;11.55;4.30;;;;;;;27.21;51.36;101846.28;5018922;28;20033;-77
2022/07/13 09:05:01;;;;;;;6.13;3.92;;;;;;;27.21;50.64;101849.81;5014747;28;20037;-74
2022/07/13 09:07:27;;;;;;;7.68;3.63;;;;;;;27.10;51.08;101853.09;5015001;28;20021;-75
2022/07/13 09:09:56;;;;;;;7.32;3.72;;;;;;;26.99;51.14;101859.88;5010435;28;20929;-79
2022/07/13 09:12:23;;;;;;;6.20;3.97;;;;;;;27.02;51.37;101858.66;5024884;28;20045;-76
2022/07/13 09:14:54;;;;;;;8.27;3.60;;;;;;;27.02;51.20;101859.47;5015925;28;20493;-74
2022/07/13 09:17:27;;;;;;;6.53;3.20;;;;;;;27.34;51.37;101851.78;5011715;28;20046;-75
2022/07/13 09:19:53;;;;;;;8.00;3.22;;;;;;;27.46;51.06;101856.44;5014181;28;20032;-76
2022/07/13 09:22:18;;;;;;;4.95;3.97;;;;;;;27.46;49.65;101855.59;5016974;28;20408;-76
2022/07/13 09:24:43;;;;;;;7.07;3.67;;;;;;;27.41;49.33;101864.31;5016244;28;20030;-76
2022/07/13 09:27:09;;;;;;;7.25;4.00;;;;;;;27.17;50.08;101862.91;5012888;28;20120;-75
2022/07/13 09:29:36;;;;;;;7.60;3.88;;;;;;;27.16;50.56;101857.69;5013248;28;20166;-75
2022/07/13 09:32:07;;;;;;;6.90;3.80;;;;;;;27.24;50.01;101862.97;5012172;28;20034;-75
2022/07/13 09:34:52;;;;;;;8.77;3.83;;;;;;;27.12;50.87;101873.47;5011777;28;20030;-76
2022/07/13 09:37:22;;;;;;;5.93;3.38;;;;;;;27.10;51.17;101869.31;5019717;28;20428;-76
2022/07/13 09:40:00;;;;;;;7.60;3.38;;;;;;;27.14;50.32;101867.88;5017404;28;20478;-76
2022/07/13 09:42:30;;;;;;;6.97;3.42;;;;;;;27.06;48.83;101854.53;5017211;28;20488;-74
2022/07/13 09:47:42;;;;;;;5.22;3.00;;;;;;;27.08;51.54;101855.16;5010365;28;21664;-77
2022/07/13 09:50:07;;;;;;;5.38;2.83;;;;;;;27.16;50.42;101852.28;5017803;28;20385;-75
2022/07/13 09:52:33;;;;;;;5.88;2.80;;;;;;;27.24;50.51;101854.88;5027683;28;20041;-76
2022/07/13 09:55:01;;;;;;;6.03;3.30;;;;;;;27.30;49.67;101859.47;5021955;28;20030;-76
2022/07/13 09:57:31;;;;;;;6.35;3.20;;;;;;;27.34;49.82;101862.59;5019969;28;20048;-75
2022/07/13 09:59:58;;;;;;;6.05;3.10;;;;;;;27.28;49.06;101869.66;5019471;28;20025;-75
2022/07/13 10:02:24;;;;;;;3.65;2.78;;;;;;;27.18;49.02;101869.13;5020081;28;20030;-75
2022/07/13 10:04:51;;;;;;;10.93;2.80;;;;;;;27.17;49.07;101873.72;5019305;28;20931;-75
2022/07/13 10:07:19;;;;;;;4.20;3.03;;;;;;;27.28;48.34;101879.63;5016355;28;20040;-76
2022/07/13 10:09:44;;;;;;;4.05;2.72;;;;;;;27.29;49.29;101876.72;5019521;28;20021;-76
2022/07/13 10:12:11;;;;;;;6.30;2.40;;;;;;;27.43;47.83;101872.22;5018234;28;20020;-76
2022/07/13 10:14:37;;;;;;;5.88;2.72;;;;;;;27.50;47.36;101873.09;5013108;28;20591;-76
2022/07/13 10:17:11;;;;;;;7.55;2.53;;;;;;;27.57;47.75;101873.94;5013550;28;20493;-76
2022/07/13 10:19:44;;;;;;;6.28;2.65;;;;;;;27.48;47.14;101878.69;5017820;28;20112;-75
2022/07/13 10:22:17;;;;;;;4.68;2.40;;;;;;;27.59;47.27;101881.84;5017271;28;20022;-76
2022/07/13 10:24:53;;;;;;;4.70;2.30;;;;;;;27.63;47.66;101877.78;5012172;28;20474;-76
2022/07/13 10:27:18;;;;;;;4.50;2.33;;;;;;;27.50;46.02;101873.09;5019874;28;20041;-76
2022/07/13 10:29:53;;;;;;;3.97;2.33;;;;;;;27.50;47.22;101877.66;5015091;28;20026;-75
2022/07/13 10:32:34;;;;;;;6.38;2.47;;;;;;;27.54;48.24;101885.16;5018207;28;20488;-76
2022/07/13 10:35:09;;;;;;;4.20;2.80;;;;;;;27.56;46.98;101883.09;5017661;28;20033;-76
2022/07/13 10:37:56;;;;;;;5.97;2.25;;;;;;;27.58;46.49;101891.84;5021345;28;20026;-75
2022/07/13 10:40:24;;;;;;;3.15;2.08;;;;;;;27.45;46.51;101884.50;5017406;28;20497;-76
2022/07/13 10:43:04;;;;;;;4.35;2.08;;;;;;;27.53;46.50;101890.78;5021303;28;20038;-75
2022/07/13 10:45:32;;;;;;;4.18;2.38;;;;;;;27.42;46.54;101886.78;5017421;28;20036;-76
2022/07/13 10:48:04;;;;;;;5.45;2.25;;;;;;;27.51;47.09;101879.31;5016802;28;20026;-76
2022/07/13 10:50:38;;;;;;;3.95;2.42;;;;;;;27.62;47.93;101882.34;5017013;28;20117;-76
2022/07/13 10:53:04;;;;;;;4.05;2.13;;;;;;;27.99;45.80;101886.44;5014164;28;20491;-74
2022/07/13 10:55:34;;;;;;;3.50;2.67;;;;;;;28.02;45.00;101891.47;5019082;28;20500;-77
2022/07/13 10:58:20;;;;;;;4.35;2.42;;;;;;;28.00;45.72;101889.97;5015058;28;20030;-75
2022/07/13 11:00:47;;;;;;;5.20;2.30;;;;;;;28.02;45.40;101894.16;5015851;28;20203;-75
2022/07/13 11:03:37;;;;;;;4.68;2.53;;;;;;;28.02;46.15;101891.47;5018498;28;20041;-75
2022/07/13 11:06:14;;;;;;;7.70;2.63;;;;;;;27.83;47.20;101894.06;5011324;28;20029;-75
2022/07/13 11:08:40;;;;;;;3.50;2.20;;;;;;;27.61;47.29;101894.16;5027806;28;20457;-75
2022/07/13 11:11:08;;;;;;;4.68;2.65;;;;;;;27.68;48.24;101897.78;5028691;28;20057;-75
2022/07/13 11:13:34;;;;;;;5.43;2.60;;;;;;;27.72;48.17;101898.19;5029369;28;20025;-75
2022/07/13 11:15:59;;;;;;;5.78;2.83;;;;;;;27.71;46.01;101885.72;5029919;28;20060;-75
2022/07/13 11:18:27;;;;;;;6.88;2.67;;;;;;;27.71;47.32;101901.94;5028310;28;20104;-76
2022/07/13 11:21:01;;;;;;;5.07;2.75;;;;;;;27.74;46.84;101896.97;5030473;28;20025;-76
2022/07/13 11:26:31;;;;;;;3.85;2.70;;;;;;;28.16;46.64;101888.78;5035428;28;20090;-75
2022/07/13 11:29:25;;;;;;;12.30;2.50;;;;;;;28.31;44.88;101876.78;5011396;28;20385;-75
2022/07/13 11:32:00;;;;;;;7.57;2.53;;;;;;;28.47;43.75;101883.69;5010213;28;20026;-75
2022/07/13 11:34:29;;;;;;;5.93;2.50;;;;;;;28.60;43.84;101890.97;5010486;28;20038;-76